sensor_id;sensor_type;location;lat;lon;timestamp;temperature;humidity
11122;DHT22;5615;49.304;10.576;2023-04-24T00:00:11;9.20;99.90
11122;DHT22;5615;49.304;10.576;2023-04-24T00:02:38;9.20;99.90
11122;DHT22;5615;49.304;10.576;2023-04-24T00:05:05;9.20;99.90
11122;DHT22;5615;49.304;10.576;2023-04-24T00:07:34;9.10;99.90
11122;DHT22;5615;49.304;10.576;2023-04-24T00:10:01;9.10;99.90
11122;DHT22;5615;49.304;10.576;2023-04-24T00:12:27;9.10;99.90
11122;DHT22;5615;49.304;10.576;2023-04-24T00:14:54;9.00;99.90
11122;DHT22;5615;49.304;10.576;2023-04-24T00:17:21;9.00;99.90
11122;DHT22;5615;49.304;10.576;2023-04-24T00:19:47;9.00;99.90
11122;DHT22;5615;49.304;10.576;2023-04-24T00:22:17;9.10;99.90
11122;DHT22;5615;49.304;10.576;2023-04-24T00:24:45;9.00;99.90
11122;DHT22;5615;49.304;10.576;2023-04-24T00:27:11;9.00;99.90
11122;DHT22;5615;49.304;10.576;2023-04-24T00:29:38;9.00;99.90
11122;DHT22;5615;49.304;10.576;2023-04-24T00:32:04;9.00;99.90
11122;DHT22;5615;49.304;10.576;2023-04-24T00:34:31;9.00;99.90
11122;DHT22;5615;49.304;10.576;2023-04-24T00:36:58;9.00;99.90
11122;DHT22;5615;49.304;10.576;2023-04-24T00:39:24;8.90;99.90
11122;DHT22;5615;49.304;10.576;2023-04-24T00:41:53;8.90;99.90
11122;DHT22;5615;49.304;10.576;2023-04-24T00:44:20;8.90;99.90
11122;DHT22;5615;49.304;10.576;2023-04-24T00:46:48;8.90;99.90
11122;DHT22;5615;49.304;10.576;2023-04-24T00:49:17;9.00;99.90
11122;DHT22;5615;49.304;10.576;2023-04-24T00:51:44;9.00;99.90
11122;DHT22;5615;49.304;10.576;2023-04-24T00:54:12;8.90;99.90
11122;DHT22;5615;49.304;10.576;2023-04-24T00:56:39;8.90;99.90
11122;DHT22;5615;49.304;10.576;2023-04-24T00:59:08;8.90;99.90
11122;DHT22;5615;49.304;10.576;2023-04-24T01:01:35;8.90;99.90
11122;DHT22;5615;49.304;10.576;2023-04-24T01:04:02;8.90;99.90
11122;DHT22;5615;49.304;10.576;2023-04-24T01:06:29;8.90;99.90
11122;DHT22;5615;49.304;10.576;2023-04-24T01:08:57;9.00;99.90
11122;DHT22;5615;49.304;10.576;2023-04-24T01:11:24;9.00;99.90
11122;DHT22;5615;49.304;10.576;2023-04-24T01:13:51;9.10;99.90
11122;DHT22;5615;49.304;10.576;2023-04-24T01:16:19;9.10;99.90
11122;DHT22;5615;49.304;10.576;2023-04-24T01:18:47;9.10;99.90
11122;DHT22;5615;49.304;10.576;2023-04-24T01:21:14;9.10;99.90
11122;DHT22;5615;49.304;10.576;2023-04-24T01:23:44;9.10;99.90
11122;DHT22;5615;49.304;10.576;2023-04-24T01:26:11;9.10;99.90
11122;DHT22;5615;49.304;10.576;2023-04-24T01:28:38;9.00;99.90
11122;DHT22;5615;49.304;10.576;2023-04-24T01:31:05;9.10;99.90
11122;DHT22;5615;49.304;10.576;2023-04-24T01:33:32;9.10;99.90
11122;DHT22;5615;49.304;10.576;2023-04-24T01:35:59;9.10;99.90
11122;DHT22;5615;49.304;10.576;2023-04-24T01:38:26;9.20;99.90
11122;DHT22;5615;49.304;10.576;2023-04-24T01:40:54;9.10;99.90
11122;DHT22;5615;49.304;10.576;2023-04-24T01:43:21;9.10;99.90
11122;DHT22;5615;49.304;10.576;2023-04-24T01:45:48;9.20;99.90
11122;DHT22;5615;49.304;10.576;2023-04-24T01:48:15;9.20;99.90
11122;DHT22;5615;49.304;10.576;2023-04-24T01:50:41;9.20;99.90
11122;DHT22;5615;49.304;10.576;2023-04-24T01:53:08;9.20;99.90
11122;DHT22;5615;49.304;10.576;2023-04-24T01:55:35;9.20;99.90
11122;DHT22;5615;49.304;10.576;2023-04-24T01:58:03;9.20;99.90
11122;DHT22;5615;49.304;10.576;2023-04-24T02:00:30;9.20;99.90
11122;DHT22;5615;49.304;10.576;2023-04-24T02:02:56;9.10;99.90
11122;DHT22;5615;49.304;10.576;2023-04-24T02:05:23;9.10;99.90
11122;DHT22;5615;49.304;10.576;2023-04-24T02:07:49;9.10;99.90
11122;DHT22;5615;49.304;10.576;2023-04-24T02:10:16;9.10;99.90
11122;DHT22;5615;49.304;10.576;2023-04-24T02:12:43;9.10;99.90
11122;DHT22;5615;49.304;10.576;2023-04-24T02:15:11;9.00;99.90
11122;DHT22;5615;49.304;10.576;2023-04-24T02:17:38;9.00;99.90
11122;DHT22;5615;49.304;10.576;2023-04-24T02:20:06;9.00;99.90
11122;DHT22;5615;49.304;10.576;2023-04-24T02:22:33;9.00;99.90
11122;DHT22;5615;49.304;10.576;2023-04-24T02:25:00;8.90;99.90
11122;DHT22;5615;49.304;10.576;2023-04-24T02:27:27;9.00;99.90
11122;DHT22;5615;49.304;10.576;2023-04-24T02:29:53;9.00;99.90
11122;DHT22;5615;49.304;10.576;2023-04-24T02:32:22;9.00;99.90
11122;DHT22;5615;49.304;10.576;2023-04-24T02:34:48;9.00;99.90
11122;DHT22;5615;49.304;10.576;2023-04-24T02:37:15;8.90;99.90
11122;DHT22;5615;49.304;10.576;2023-04-24T02:39:42;8.90;99.90
11122;DHT22;5615;49.304;10.576;2023-04-24T02:42:09;8.90;99.90
11122;DHT22;5615;49.304;10.576;2023-04-24T02:44:36;8.90;99.90
11122;DHT22;5615;49.304;10.576;2023-04-24T02:47:02;8.90;99.90
11122;DHT22;5615;49.304;10.576;2023-04-24T02:49:30;8.90;99.90
11122;DHT22;5615;49.304;10.576;2023-04-24T02:51:57;9.00;99.90
11122;DHT22;5615;49.304;10.576;2023-04-24T02:54:24;9.00;99.90
11122;DHT22;5615;49.304;10.576;2023-04-24T02:56:50;8.90;99.90
11122;DHT22;5615;49.304;10.576;2023-04-24T02:59:17;8.90;99.90
11122;DHT22;5615;49.304;10.576;2023-04-24T03:01:44;8.90;99.90
11122;DHT22;5615;49.304;10.576;2023-04-24T03:04:10;8.90;99.90
11122;DHT22;5615;49.304;10.576;2023-04-24T03:06:38;8.90;99.90
11122;DHT22;5615;49.304;10.576;2023-04-24T03:09:05;8.90;99.90
11122;DHT22;5615;49.304;10.576;2023-04-24T03:11:31;8.90;99.90
11122;DHT22;5615;49.304;10.576;2023-04-24T03:13:58;9.00;99.90
11122;DHT22;5615;49.304;10.576;2023-04-24T03:16:24;9.00;99.90
11122;DHT22;5615;49.304;10.576;2023-04-24T03:18:51;9.00;99.90
11122;DHT22;5615;49.304;10.576;2023-04-24T03:21:18;9.00;99.90
11122;DHT22;5615;49.304;10.576;2023-04-24T03:23:46;9.00;99.90
11122;DHT22;5615;49.304;10.576;2023-04-24T03:26:12;8.90;99.90
11122;DHT22;5615;49.304;10.576;2023-04-24T03:28:39;8.90;99.90
11122;DHT22;5615;49.304;10.576;2023-04-24T03:31:06;8.90;99.90
11122;DHT22;5615;49.304;10.576;2023-04-24T03:33:32;8.80;99.90
11122;DHT22;5615;49.304;10.576;2023-04-24T03:35:59;8.80;99.90
11122;DHT22;5615;49.304;10.576;2023-04-24T03:38:26;8.90;99.90
11122;DHT22;5615;49.304;10.576;2023-04-24T03:40:54;9.00;99.90
11122;DHT22;5615;49.304;10.576;2023-04-24T03:43:20;8.90;99.90
11122;DHT22;5615;49.304;10.576;2023-04-24T03:45:47;9.00;99.90
11122;DHT22;5615;49.304;10.576;2023-04-24T03:48:13;9.00;99.90
11122;DHT22;5615;49.304;10.576;2023-04-24T03:50:40;9.00;99.90
11122;DHT22;5615;49.304;10.576;2023-04-24T03:53:07;8.90;99.90
11122;DHT22;5615;49.304;10.576;2023-04-24T03:55:34;9.00;99.90
11122;DHT22;5615;49.304;10.576;2023-04-24T03:58:01;9.00;99.90
11122;DHT22;5615;49.304;10.576;2023-04-24T04:00:28;9.00;99.90
11122;DHT22;5615;49.304;10.576;2023-04-24T04:02:58;8.90;99.90
11122;DHT22;5615;49.304;10.576;2023-04-24T04:05:25;8.90;99.90
11122;DHT22;5615;49.304;10.576;2023-04-24T04:07:51;9.00;99.90
11122;DHT22;5615;49.304;10.576;2023-04-24T04:10:18;9.00;99.90
11122;DHT22;5615;49.304;10.576;2023-04-24T04:12:45;9.00;99.90
11122;DHT22;5615;49.304;10.576;2023-04-24T04:15:13;9.00;99.90
11122;DHT22;5615;49.304;10.576;2023-04-24T04:17:39;9.00;99.90
11122;DHT22;5615;49.304;10.576;2023-04-24T04:20:07;9.00;99.90
11122;DHT22;5615;49.304;10.576;2023-04-24T04:22:35;9.00;99.90
11122;DHT22;5615;49.304;10.576;2023-04-24T04:25:02;9.00;99.90
11122;DHT22;5615;49.304;10.576;2023-04-24T04:27:29;9.00;99.90
11122;DHT22;5615;49.304;10.576;2023-04-24T04:29:57;9.00;99.90
11122;DHT22;5615;49.304;10.576;2023-04-24T04:32:26;9.00;99.90
11122;DHT22;5615;49.304;10.576;2023-04-24T04:34:52;9.00;99.90
11122;DHT22;5615;49.304;10.576;2023-04-24T04:37:19;9.00;99.90
11122;DHT22;5615;49.304;10.576;2023-04-24T04:39:47;8.90;99.90
11122;DHT22;5615;49.304;10.576;2023-04-24T04:42:13;8.90;99.90
11122;DHT22;5615;49.304;10.576;2023-04-24T04:44:40;8.90;99.90
11122;DHT22;5615;49.304;10.576;2023-04-24T04:47:08;9.00;99.90
11122;DHT22;5615;49.304;10.576;2023-04-24T04:49:37;8.90;99.90
11122;DHT22;5615;49.304;10.576;2023-04-24T04:52:04;9.00;99.90
11122;DHT22;5615;49.304;10.576;2023-04-24T04:54:30;9.00;99.90
11122;DHT22;5615;49.304;10.576;2023-04-24T04:56:57;9.00;99.90
11122;DHT22;5615;49.304;10.576;2023-04-24T04:59:24;9.00;99.90
11122;DHT22;5615;49.304;10.576;2023-04-24T05:01:50;9.10;99.90
11122;DHT22;5615;49.304;10.576;2023-04-24T05:04:17;9.10;99.90
11122;DHT22;5615;49.304;10.576;2023-04-24T05:06:45;9.20;99.90
11122;DHT22;5615;49.304;10.576;2023-04-24T05:09:12;9.20;99.90
11122;DHT22;5615;49.304;10.576;2023-04-24T05:11:39;9.20;99.90
11122;DHT22;5615;49.304;10.576;2023-04-24T05:14:05;9.20;99.90
11122;DHT22;5615;49.304;10.576;2023-04-24T05:16:32;9.30;99.90
11122;DHT22;5615;49.304;10.576;2023-04-24T05:18:59;9.30;99.90
11122;DHT22;5615;49.304;10.576;2023-04-24T05:21:25;9.40;99.90
11122;DHT22;5615;49.304;10.576;2023-04-24T05:23:53;9.40;99.90
11122;DHT22;5615;49.304;10.576;2023-04-24T05:26:20;9.40;99.90
11122;DHT22;5615;49.304;10.576;2023-04-24T05:28:48;9.40;99.90
11122;DHT22;5615;49.304;10.576;2023-04-24T05:31:15;9.40;99.90
11122;DHT22;5615;49.304;10.576;2023-04-24T05:33:43;9.40;99.90
11122;DHT22;5615;49.304;10.576;2023-04-24T05:36:09;9.50;99.90
11122;DHT22;5615;49.304;10.576;2023-04-24T05:38:36;9.60;99.90
11122;DHT22;5615;49.304;10.576;2023-04-24T05:41:04;9.60;99.90
11122;DHT22;5615;49.304;10.576;2023-04-24T05:43:31;9.60;99.90
11122;DHT22;5615;49.304;10.576;2023-04-24T05:45:57;9.60;99.90
11122;DHT22;5615;49.304;10.576;2023-04-24T05:48:24;9.70;99.90
11122;DHT22;5615;49.304;10.576;2023-04-24T05:50:51;9.70;99.90
11122;DHT22;5615;49.304;10.576;2023-04-24T05:53:18;9.70;99.90
11122;DHT22;5615;49.304;10.576;2023-04-24T05:55:45;9.80;99.90
11122;DHT22;5615;49.304;10.576;2023-04-24T05:58:13;9.80;99.90
11122;DHT22;5615;49.304;10.576;2023-04-24T06:00:40;9.80;99.90
11122;DHT22;5615;49.304;10.576;2023-04-24T06:03:09;9.80;99.90
11122;DHT22;5615;49.304;10.576;2023-04-24T06:05:36;9.70;99.90
11122;DHT22;5615;49.304;10.576;2023-04-24T06:08:03;9.70;99.90
11122;DHT22;5615;49.304;10.576;2023-04-24T06:10:29;9.70;99.90
11122;DHT22;5615;49.304;10.576;2023-04-24T06:12:56;9.60;99.90
11122;DHT22;5615;49.304;10.576;2023-04-24T06:15:28;9.50;99.90
11122;DHT22;5615;49.304;10.576;2023-04-24T06:17:55;9.50;99.90
11122;DHT22;5615;49.304;10.576;2023-04-24T06:20:22;9.60;99.90
11122;DHT22;5615;49.304;10.576;2023-04-24T06:22:49;9.60;99.90
11122;DHT22;5615;49.304;10.576;2023-04-24T06:25:16;9.50;99.90
11122;DHT22;5615;49.304;10.576;2023-04-24T06:27:42;9.50;99.90
11122;DHT22;5615;49.304;10.576;2023-04-24T06:30:09;9.50;99.90
11122;DHT22;5615;49.304;10.576;2023-04-24T06:32:38;9.60;99.90
11122;DHT22;5615;49.304;10.576;2023-04-24T06:35:05;9.60;99.90
11122;DHT22;5615;49.304;10.576;2023-04-24T06:37:33;9.80;99.90
11122;DHT22;5615;49.304;10.576;2023-04-24T06:40:00;9.80;99.90
11122;DHT22;5615;49.304;10.576;2023-04-24T06:42:26;10.10;99.90
11122;DHT22;5615;49.304;10.576;2023-04-24T06:44:53;10.10;99.90
11122;DHT22;5615;49.304;10.576;2023-04-24T06:47:19;10.10;99.90
11122;DHT22;5615;49.304;10.576;2023-04-24T06:49:47;10.00;99.90
11122;DHT22;5615;49.304;10.576;2023-04-24T06:52:16;10.00;99.90
11122;DHT22;5615;49.304;10.576;2023-04-24T06:54:43;9.90;99.90
11122;DHT22;5615;49.304;10.576;2023-04-24T06:57:09;10.00;99.90
11122;DHT22;5615;49.304;10.576;2023-04-24T06:59:36;10.00;99.90
11122;DHT22;5615;49.304;10.576;2023-04-24T07:02:03;9.90;99.90
11122;DHT22;5615;49.304;10.576;2023-04-24T07:04:30;9.80;99.90
11122;DHT22;5615;49.304;10.576;2023-04-24T07:06:58;9.80;99.90
11122;DHT22;5615;49.304;10.576;2023-04-24T07:09:26;9.80;99.90
11122;DHT22;5615;49.304;10.576;2023-04-24T07:11:53;9.90;99.90
11122;DHT22;5615;49.304;10.576;2023-04-24T07:14:22;9.90;99.90
11122;DHT22;5615;49.304;10.576;2023-04-24T07:16:48;10.20;99.90
11122;DHT22;5615;49.304;10.576;2023-04-24T07:19:15;10.10;99.90
11122;DHT22;5615;49.304;10.576;2023-04-24T07:21:42;10.10;99.90
11122;DHT22;5615;49.304;10.576;2023-04-24T07:24:09;10.00;99.90
11122;DHT22;5615;49.304;10.576;2023-04-24T07:26:38;10.10;99.90
11122;DHT22;5615;49.304;10.576;2023-04-24T07:29:05;10.00;99.90
11122;DHT22;5615;49.304;10.576;2023-04-24T07:31:32;9.90;99.90
11122;DHT22;5615;49.304;10.576;2023-04-24T07:33:59;9.90;99.90
11122;DHT22;5615;49.304;10.576;2023-04-24T07:36:25;9.90;99.90
11122;DHT22;5615;49.304;10.576;2023-04-24T07:38:54;9.90;99.90
11122;DHT22;5615;49.304;10.576;2023-04-24T07:41:23;9.90;99.90
11122;DHT22;5615;49.304;10.576;2023-04-24T07:43:50;9.90;99.90
11122;DHT22;5615;49.304;10.576;2023-04-24T07:46:17;9.90;99.90
11122;DHT22;5615;49.304;10.576;2023-04-24T07:48:44;10.00;99.90
11122;DHT22;5615;49.304;10.576;2023-04-24T07:51:13;10.00;99.90
11122;DHT22;5615;49.304;10.576;2023-04-24T07:53:39;10.10;99.90
11122;DHT22;5615;49.304;10.576;2023-04-24T07:56:06;10.30;99.90
11122;DHT22;5615;49.304;10.576;2023-04-24T07:58:34;10.70;99.90
11122;DHT22;5615;49.304;10.576;2023-04-24T08:01:01;10.80;99.90
11122;DHT22;5615;49.304;10.576;2023-04-24T08:03:28;10.60;99.90
11122;DHT22;5615;49.304;10.576;2023-04-24T08:05:55;10.50;99.90
11122;DHT22;5615;49.304;10.576;2023-04-24T08:08:22;10.10;99.90
11122;DHT22;5615;49.304;10.576;2023-04-24T08:10:49;10.10;99.90
11122;DHT22;5615;49.304;10.576;2023-04-24T08:13:15;10.00;99.90
11122;DHT22;5615;49.304;10.576;2023-04-24T08:15:43;10.20;99.90
11122;DHT22;5615;49.304;10.576;2023-04-24T08:18:10;10.40;99.90
11122;DHT22;5615;49.304;10.576;2023-04-24T08:20:38;10.50;99.90
11122;DHT22;5615;49.304;10.576;2023-04-24T08:23:05;10.50;99.90
11122;DHT22;5615;49.304;10.576;2023-04-24T08:25:32;10.20;99.90
11122;DHT22;5615;49.304;10.576;2023-04-24T08:28:01;10.20;99.90
11122;DHT22;5615;49.304;10.576;2023-04-24T08:30:28;10.50;99.90
11122;DHT22;5615;49.304;10.576;2023-04-24T08:32:56;10.90;99.90
11122;DHT22;5615;49.304;10.576;2023-04-24T08:35:23;10.90;99.90
11122;DHT22;5615;49.304;10.576;2023-04-24T08:37:49;10.90;99.90
11122;DHT22;5615;49.304;10.576;2023-04-24T08:40:17;10.80;99.90
11122;DHT22;5615;49.304;10.576;2023-04-24T08:42:44;10.80;99.90
11122;DHT22;5615;49.304;10.576;2023-04-24T08:45:12;11.00;99.90
11122;DHT22;5615;49.304;10.576;2023-04-24T08:47:39;11.30;99.90
11122;DHT22;5615;49.304;10.576;2023-04-24T08:50:09;11.40;99.90
11122;DHT22;5615;49.304;10.576;2023-04-24T08:52:36;11.60;99.90
11122;DHT22;5615;49.304;10.576;2023-04-24T08:55:03;12.30;99.90
11122;DHT22;5615;49.304;10.576;2023-04-24T08:57:31;12.10;99.90
11122;DHT22;5615;49.304;10.576;2023-04-24T08:59:59;12.00;99.90
11122;DHT22;5615;49.304;10.576;2023-04-24T09:02:26;11.50;99.90
11122;DHT22;5615;49.304;10.576;2023-04-24T09:04:53;11.20;99.90
11122;DHT22;5615;49.304;10.576;2023-04-24T09:07:22;11.40;99.90
11122;DHT22;5615;49.304;10.576;2023-04-24T09:09:50;11.40;99.90
11122;DHT22;5615;49.304;10.576;2023-04-24T09:12:18;11.20;99.90
11122;DHT22;5615;49.304;10.576;2023-04-24T09:14:45;11.60;99.90
11122;DHT22;5615;49.304;10.576;2023-04-24T09:17:12;11.60;99.90
11122;DHT22;5615;49.304;10.576;2023-04-24T09:19:38;11.60;99.90
11122;DHT22;5615;49.304;10.576;2023-04-24T09:22:05;11.70;99.90
11122;DHT22;5615;49.304;10.576;2023-04-24T09:24:34;11.70;99.90
11122;DHT22;5615;49.304;10.576;2023-04-24T09:27:01;11.80;99.90
11122;DHT22;5615;49.304;10.576;2023-04-24T09:29:28;11.60;99.90
11122;DHT22;5615;49.304;10.576;2023-04-24T09:31:57;11.90;99.90
11122;DHT22;5615;49.304;10.576;2023-04-24T09:34:24;12.30;99.90
11122;DHT22;5615;49.304;10.576;2023-04-24T09:36:53;12.20;99.90
11122;DHT22;5615;49.304;10.576;2023-04-24T09:39:20;12.10;99.90
11122;DHT22;5615;49.304;10.576;2023-04-24T09:41:49;12.20;99.90
11122;DHT22;5615;49.304;10.576;2023-04-24T09:44:17;12.70;99.90
11122;DHT22;5615;49.304;10.576;2023-04-24T09:46:49;12.70;99.90
11122;DHT22;5615;49.304;10.576;2023-04-24T09:49:21;13.00;99.90
11122;DHT22;5615;49.304;10.576;2023-04-24T09:51:48;13.40;99.90
11122;DHT22;5615;49.304;10.576;2023-04-24T09:54:16;13.10;99.90
11122;DHT22;5615;49.304;10.576;2023-04-24T09:56:44;12.40;99.90
11122;DHT22;5615;49.304;10.576;2023-04-24T09:59:13;12.20;99.90
11122;DHT22;5615;49.304;10.576;2023-04-24T10:01:40;12.70;99.90
11122;DHT22;5615;49.304;10.576;2023-04-24T10:04:15;12.30;99.90
11122;DHT22;5615;49.304;10.576;2023-04-24T10:06:43;12.70;99.90
11122;DHT22;5615;49.304;10.576;2023-04-24T10:09:10;13.10;99.90
11122;DHT22;5615;49.304;10.576;2023-04-24T10:11:41;12.90;99.90
11122;DHT22;5615;49.304;10.576;2023-04-24T10:14:09;13.50;99.90
11122;DHT22;5615;49.304;10.576;2023-04-24T10:16:39;13.30;99.90
11122;DHT22;5615;49.304;10.576;2023-04-24T10:19:06;13.30;99.90
11122;DHT22;5615;49.304;10.576;2023-04-24T10:21:34;13.00;99.90
11122;DHT22;5615;49.304;10.576;2023-04-24T10:24:01;13.00;99.90
11122;DHT22;5615;49.304;10.576;2023-04-24T10:26:29;12.20;99.90
11122;DHT22;5615;49.304;10.576;2023-04-24T10:28:57;11.30;99.90
11122;DHT22;5615;49.304;10.576;2023-04-24T10:31:25;11.20;99.90
11122;DHT22;5615;49.304;10.576;2023-04-24T10:33:54;11.20;99.90
11122;DHT22;5615;49.304;10.576;2023-04-24T10:36:22;11.00;99.90
11122;DHT22;5615;49.304;10.576;2023-04-24T10:38:53;11.10;99.90
11122;DHT22;5615;49.304;10.576;2023-04-24T10:41:21;11.40;99.90
11122;DHT22;5615;49.304;10.576;2023-04-24T10:44:04;11.40;99.90
11122;DHT22;5615;49.304;10.576;2023-04-24T10:46:32;11.70;99.90
11122;DHT22;5615;49.304;10.576;2023-04-24T10:49:03;11.60;99.90
11122;DHT22;5615;49.304;10.576;2023-04-24T10:51:45;12.10;99.90
11122;DHT22;5615;49.304;10.576;2023-04-24T10:54:25;12.00;99.90
11122;DHT22;5615;49.304;10.576;2023-04-24T10:56:53;11.70;99.90
11122;DHT22;5615;49.304;10.576;2023-04-24T10:59:27;12.10;99.90
11122;DHT22;5615;49.304;10.576;2023-04-24T11:01:54;13.40;99.90
11122;DHT22;5615;49.304;10.576;2023-04-24T11:04:33;13.20;99.90
11122;DHT22;5615;49.304;10.576;2023-04-24T11:07:00;13.30;99.90
11122;DHT22;5615;49.304;10.576;2023-04-24T11:09:30;14.30;99.90
11122;DHT22;5615;49.304;10.576;2023-04-24T11:12:04;15.40;99.90
11122;DHT22;5615;49.304;10.576;2023-04-24T11:15:00;15.10;99.90
11122;DHT22;5615;49.304;10.576;2023-04-24T11:17:29;13.30;99.90
11122;DHT22;5615;49.304;10.576;2023-04-24T11:20:02;12.40;99.90
11122;DHT22;5615;49.304;10.576;2023-04-24T11:22:33;12.90;99.90
11122;DHT22;5615;49.304;10.576;2023-04-24T11:25:00;12.80;99.90
11122;DHT22;5615;49.304;10.576;2023-04-24T11:27:30;12.70;99.90
11122;DHT22;5615;49.304;10.576;2023-04-24T11:30:01;13.10;99.90
11122;DHT22;5615;49.304;10.576;2023-04-24T11:32:30;12.70;99.90
11122;DHT22;5615;49.304;10.576;2023-04-24T11:34:57;13.20;99.90
11122;DHT22;5615;49.304;10.576;2023-04-24T11:37:27;13.20;99.90
11122;DHT22;5615;49.304;10.576;2023-04-24T11:39:56;14.90;99.80
11122;DHT22;5615;49.304;10.576;2023-04-24T11:42:23;15.30;98.60
11122;DHT22;5615;49.304;10.576;2023-04-24T11:44:52;13.60;99.90
11122;DHT22;5615;49.304;10.576;2023-04-24T11:47:19;13.40;99.90
11122;DHT22;5615;49.304;10.576;2023-04-24T11:49:46;13.60;99.90
11122;DHT22;5615;49.304;10.576;2023-04-24T11:52:15;12.60;99.90
11122;DHT22;5615;49.304;10.576;2023-04-24T11:54:48;12.50;99.90
11122;DHT22;5615;49.304;10.576;2023-04-24T11:57:15;12.10;99.90
11122;DHT22;5615;49.304;10.576;2023-04-24T11:59:42;11.80;99.90
11122;DHT22;5615;49.304;10.576;2023-04-24T12:02:09;12.00;99.90
11122;DHT22;5615;49.304;10.576;2023-04-24T12:04:45;11.60;99.90
11122;DHT22;5615;49.304;10.576;2023-04-24T12:07:12;11.90;99.90
11122;DHT22;5615;49.304;10.576;2023-04-24T12:09:42;12.70;99.90
11122;DHT22;5615;49.304;10.576;2023-04-24T12:12:12;12.90;99.90
11122;DHT22;5615;49.304;10.576;2023-04-24T12:14:43;12.80;99.90
11122;DHT22;5615;49.304;10.576;2023-04-24T12:17:10;12.50;99.90
11122;DHT22;5615;49.304;10.576;2023-04-24T12:19:37;12.20;99.90
11122;DHT22;5615;49.304;10.576;2023-04-24T12:22:05;13.90;99.90
11122;DHT22;5615;49.304;10.576;2023-04-24T12:24:32;14.60;99.90
11122;DHT22;5615;49.304;10.576;2023-04-24T12:26:59;13.60;99.90
11122;DHT22;5615;49.304;10.576;2023-04-24T12:29:28;13.10;99.90
11122;DHT22;5615;49.304;10.576;2023-04-24T12:31:54;13.10;99.90
11122;DHT22;5615;49.304;10.576;2023-04-24T12:34:23;13.20;99.90
11122;DHT22;5615;49.304;10.576;2023-04-24T12:36:50;13.40;99.90
11122;DHT22;5615;49.304;10.576;2023-04-24T12:39:17;13.20;99.90
11122;DHT22;5615;49.304;10.576;2023-04-24T12:41:54;12.90;99.90
11122;DHT22;5615;49.304;10.576;2023-04-24T12:44:30;12.90;99.90
11122;DHT22;5615;49.304;10.576;2023-04-24T12:46:57;13.10;99.90
11122;DHT22;5615;49.304;10.576;2023-04-24T12:49:24;12.80;99.90
11122;DHT22;5615;49.304;10.576;2023-04-24T12:51:51;12.80;99.90
11122;DHT22;5615;49.304;10.576;2023-04-24T12:54:17;12.10;99.90
11122;DHT22;5615;49.304;10.576;2023-04-24T12:56:44;12.80;99.90
11122;DHT22;5615;49.304;10.576;2023-04-24T12:59:11;12.70;99.90
11122;DHT22;5615;49.304;10.576;2023-04-24T13:01:39;12.10;99.90
11122;DHT22;5615;49.304;10.576;2023-04-24T13:04:05;11.80;99.90
11122;DHT22;5615;49.304;10.576;2023-04-24T13:06:32;11.40;99.90
11122;DHT22;5615;49.304;10.576;2023-04-24T13:08:59;11.20;99.90
11122;DHT22;5615;49.304;10.576;2023-04-24T13:11:25;11.10;99.90
11122;DHT22;5615;49.304;10.576;2023-04-24T13:13:52;11.00;99.90
11122;DHT22;5615;49.304;10.576;2023-04-24T13:16:19;10.90;99.90
11122;DHT22;5615;49.304;10.576;2023-04-24T13:18:47;10.70;99.90
11122;DHT22;5615;49.304;10.576;2023-04-24T13:21:13;10.60;99.90
11122;DHT22;5615;49.304;10.576;2023-04-24T13:23:40;10.60;99.90
11122;DHT22;5615;49.304;10.576;2023-04-24T13:26:07;10.70;99.90
11122;DHT22;5615;49.304;10.576;2023-04-24T13:28:34;10.80;99.90
11122;DHT22;5615;49.304;10.576;2023-04-24T13:31:01;10.40;99.90
11122;DHT22;5615;49.304;10.576;2023-04-24T13:33:27;10.70;99.90
11122;DHT22;5615;49.304;10.576;2023-04-24T13:35:55;11.80;99.90
11122;DHT22;5615;49.304;10.576;2023-04-24T13:38:22;14.00;99.90
11122;DHT22;5615;49.304;10.576;2023-04-24T13:40:49;14.20;99.90
11122;DHT22;5615;49.304;10.576;2023-04-24T13:43:16;14.90;99.90
11122;DHT22;5615;49.304;10.576;2023-04-24T13:45:42;16.00;99.90
11122;DHT22;5615;49.304;10.576;2023-04-24T13:48:09;15.10;99.90
11122;DHT22;5615;49.304;10.576;2023-04-24T13:50:36;13.90;99.90
11122;DHT22;5615;49.304;10.576;2023-04-24T13:53:03;12.90;99.90
11122;DHT22;5615;49.304;10.576;2023-04-24T13:55:30;12.30;99.90
11122;DHT22;5615;49.304;10.576;2023-04-24T13:57:57;12.20;99.90
11122;DHT22;5615;49.304;10.576;2023-04-24T14:00:23;12.00;99.90
11122;DHT22;5615;49.304;10.576;2023-04-24T14:02:50;11.70;99.90
11122;DHT22;5615;49.304;10.576;2023-04-24T14:05:17;11.50;99.90
11122;DHT22;5615;49.304;10.576;2023-04-24T14:07:44;11.40;99.90
11122;DHT22;5615;49.304;10.576;2023-04-24T14:10:11;11.10;99.90
11122;DHT22;5615;49.304;10.576;2023-04-24T14:12:38;10.20;99.90
11122;DHT22;5615;49.304;10.576;2023-04-24T14:15:06;7.80;99.90
11122;DHT22;5615;49.304;10.576;2023-04-24T14:17:34;7.80;99.90
11122;DHT22;5615;49.304;10.576;2023-04-24T14:20:00;8.50;99.90
11122;DHT22;5615;49.304;10.576;2023-04-24T14:22:28;9.30;99.90
11122;DHT22;5615;49.304;10.576;2023-04-24T14:24:55;10.00;99.90
11122;DHT22;5615;49.304;10.576;2023-04-24T14:27:24;10.90;99.90
11122;DHT22;5615;49.304;10.576;2023-04-24T14:29:52;12.00;99.90
11122;DHT22;5615;49.304;10.576;2023-04-24T14:32:19;11.70;99.90
11122;DHT22;5615;49.304;10.576;2023-04-24T14:34:45;10.90;99.90
11122;DHT22;5615;49.304;10.576;2023-04-24T14:37:12;11.00;99.90
11122;DHT22;5615;49.304;10.576;2023-04-24T14:39:39;10.70;99.90
11122;DHT22;5615;49.304;10.576;2023-04-24T14:42:05;10.90;99.90
11122;DHT22;5615;49.304;10.576;2023-04-24T14:44:33;11.10;99.90
11122;DHT22;5615;49.304;10.576;2023-04-24T14:47:00;11.30;99.90
11122;DHT22;5615;49.304;10.576;2023-04-24T14:49:27;12.60;99.90
11122;DHT22;5615;49.304;10.576;2023-04-24T14:51:53;13.30;99.90
11122;DHT22;5615;49.304;10.576;2023-04-24T14:54:20;13.70;99.90
11122;DHT22;5615;49.304;10.576;2023-04-24T14:56:48;12.60;99.90
11122;DHT22;5615;49.304;10.576;2023-04-24T14:59:15;14.20;99.90
11122;DHT22;5615;49.304;10.576;2023-04-24T15:01:43;12.90;99.90
11122;DHT22;5615;49.304;10.576;2023-04-24T15:04:10;12.20;99.90
11122;DHT22;5615;49.304;10.576;2023-04-24T15:06:37;13.00;99.90
11122;DHT22;5615;49.304;10.576;2023-04-24T15:09:03;13.70;99.90
11122;DHT22;5615;49.304;10.576;2023-04-24T15:11:30;12.70;99.90
11122;DHT22;5615;49.304;10.576;2023-04-24T15:13:56;13.30;99.90
11122;DHT22;5615;49.304;10.576;2023-04-24T15:16:23;15.70;99.90
11122;DHT22;5615;49.304;10.576;2023-04-24T15:18:51;16.10;99.90
11122;DHT22;5615;49.304;10.576;2023-04-24T15:21:18;16.00;99.90
11122;DHT22;5615;49.304;10.576;2023-04-24T15:23:45;15.90;99.90
11122;DHT22;5615;49.304;10.576;2023-04-24T15:26:11;16.40;99.90
11122;DHT22;5615;49.304;10.576;2023-04-24T15:28:38;15.50;99.90
11122;DHT22;5615;49.304;10.576;2023-04-24T15:31:05;15.60;99.90
11122;DHT22;5615;49.304;10.576;2023-04-24T15:33:31;16.50;98.50
11122;DHT22;5615;49.304;10.576;2023-04-24T15:35:59;16.30;98.90
11122;DHT22;5615;49.304;10.576;2023-04-24T15:38:26;14.20;99.90